Time,TemperatureF,DewpointF,PressureIn,WindDirection,WindDirectionDegrees,WindSpeedMPH,WindSpeedGustMPH,Humidity,HourlyPrecipIn,Conditions,Clouds,dailyrainin,SoftwareType,DateUTC
2013-09-13 00:02:00,52.2,47.2,29.57,SE,135,0.0,0.0,83,0.00,,,0.00,WUHU216HW,2013-09-13 05:02:00,
2013-09-13 00:07:00,52.2,47.5,29.56,SE,135,0.0,0.0,84,0.00,,,0.00,WUHU216HW,2013-09-13 05:07:00,
2013-09-13 00:12:00,52.2,47.2,29.56,SE,135,0.0,0.0,83,0.00,,,0.00,WUHU216HW,2013-09-13 05:12:00,
2013-09-13 00:17:00,51.8,46.8,29.56,ENE,68,0.0,0.2,83,0.00,,,0.00,WUHU216HW,2013-09-13 05:17:00,
2013-09-13 00:22:00,51.7,47.1,29.56,ENE,68,0.0,0.2,84,0.00,,,0.00,WUHU216HW,2013-09-13 05:22:00,
2013-09-13 00:27:00,51.5,46.9,29.56,ENE,68,0.0,0.0,84,0.00,,,0.00,WUHU216HW,2013-09-13 05:27:00,
2013-09-13 00:32:00,51.5,46.9,29.57,ENE,68,0.0,0.0,84,0.00,,,0.00,WUHU216HW,2013-09-13 05:32:00,
2013-09-13 00:37:00,51.5,47.2,29.57,NNE,23,0.0,0.0,85,0.00,,,0.00,WUHU216HW,2013-09-13 05:37:00,
2013-09-13 00:42:00,51.5,47.2,29.57,NNE,23,0.0,0.0,85,0.00,,,0.00,WUHU216HW,2013-09-13 05:42:00,
2013-09-13 00:47:00,52.2,48.5,29.56,NW,317,0.5,1.8,87,0.00,,,0.00,WUHU216HW,2013-09-13 05:47:00,
2013-09-13 00:52:00,52.9,48.5,29.56,NE,45,0.7,1.8,85,0.00,,,0.00,WUHU216HW,2013-09-13 05:52:00,
2013-09-13 00:57:00,53.6,49.2,29.56,ESE,113,0.2,1.3,85,0.00,,,0.00,WUHU216HW,2013-09-13 05:57:00,
2013-09-13 01:02:00,54.7,49.7,29.56,NE,45,0.4,2.0,83,0.00,,,0.00,WUHU216HW,2013-09-13 06:02:00,
2013-09-13 01:07:00,55.4,49.7,29.56,ENE,61,1.1,2.0,81,0.00,,,0.00,WUHU216HW,2013-09-13 06:07:00,
2013-09-13 01:12:00,55.6,49.9,29.57,ENE,64,0.8,1.6,81,0.00,,,0.00,WUHU216HW,2013-09-13 06:12:00,
2013-09-13 01:17:00,55.6,49.6,29.57,ENE,68,0.4,1.3,80,0.00,,,0.00,WUHU216HW,2013-09-13 06:17:00,
2013-09-13 01:22:00,55.3,49.0,29.57,NE,41,0.3,1.1,79,0.00,,,0.00,WUHU216HW,2013-09-13 06:22:00,
2013-09-13 01:27:00,55.1,48.8,29.57,NE,45,0.0,0.7,79,0.00,,,0.00,WUHU216HW,2013-09-13 06:27:00,
2013-09-13 01:32:00,54.9,48.6,29.57,East,90,0.0,0.4,79,0.00,,,0.00,WUHU216HW,2013-09-13 06:32:00,
2013-09-13 01:37:00,54.5,48.5,29.57,SSW,203,0.0,1.1,80,0.00,,,0.00,WUHU216HW,2013-09-13 06:37:00,
2013-09-13 01:42:00,54.0,47.7,29.57,NW,315,0.0,1.1,79,0.00,,,0.00,WUHU216HW,2013-09-13 06:42:00,
2013-09-13 01:47:00,53.6,48.0,29.57,NE,45,0.4,0.9,81,0.00,,,0.00,WUHU216HW,2013-09-13 06:47:00,
2013-09-13 01:52:00,53.6,48.3,29.57,SE,124,0.4,0.9,82,0.00,,,0.00,WUHU216HW,2013-09-13 06:52:00,
2013-09-13 01:57:00,53.6,48.3,29.58,North,352,0.4,0.7,82,0.00,,,0.00,WUHU216HW,2013-09-13 06:57:00,
2013-09-13 02:02:00,53.6,48.0,29.58,East,90,0.0,0.7,81,0.00,,,0.00,WUHU216HW,2013-09-13 07:02:00,
2013-09-13 02:07:00,53.5,48.2,29.58,ENE,76,0.7,1.1,82,0.00,,,0.00,WUHU216HW,2013-09-13 07:07:00,
2013-09-13 02:12:00,53.5,48.5,29.58,ENE,68,0.4,1.1,83,0.00,,,0.00,WUHU216HW,2013-09-13 07:12:00,
2013-09-13 02:17:00,53.6,48.6,29.58,ENE,64,0.9,1.8,83,0.00,,,0.00,WUHU216HW,2013-09-13 07:17:00,
2013-09-13 02:22:00,53.8,48.5,29.58,ENE,68,0.2,1.8,82,0.00,,,0.00,WUHU216HW,2013-09-13 07:22:00,
2013-09-13 02:27:00,53.6,48.0,29.58,ENE,68,0.0,0.9,81,0.00,,,0.00,WUHU216HW,2013-09-13 07:27:00,
2013-09-13 02:32:00,53.5,48.2,29.58,East,90,0.4,0.4,82,0.00,,,0.00,WUHU216HW,2013-09-13 07:32:00,
2013-09-13 02:37:00,52.9,47.6,29.58,NE,45,0.2,0.4,82,0.00,,,0.00,WUHU216HW,2013-09-13 07:37:00,
2013-09-13 02:42:00,52.7,47.7,29.58,NNE,23,0.2,0.4,83,0.00,,,0.00,WUHU216HW,2013-09-13 07:42:00,
2013-09-13 02:47:00,52.4,47.4,29.58,North,0,0.0,0.4,83,0.00,,,0.00,WUHU216HW,2013-09-13 07:47:00,
2013-09-13 02:52:00,52.0,47.0,29.58,East,90,0.0,0.0,83,0.00,,,0.00,WUHU216HW,2013-09-13 07:52:00,
2013-09-13 02:57:00,51.8,47.2,29.58,East,90,0.2,0.4,84,0.00,,,0.00,WUHU216HW,2013-09-13 07:57:00,
2013-09-13 03:01:00,51.8,47.2,29.58,NNE,23,0.4,0.4,84,0.00,,,0.00,WUHU216HW,2013-09-13 08:01:00,
2013-09-13 03:06:00,51.7,47.4,29.58,North,0,0.0,0.4,85,0.00,,,0.00,WUHU216HW,2013-09-13 08:06:00,
2013-09-13 03:11:00,51.3,46.7,29.58,ENE,68,0.0,0.4,84,0.00,,,0.00,WUHU216HW,2013-09-13 08:11:00,
2013-09-13 03:16:00,50.9,46.3,29.58,ENE,68,0.0,0.0,84,0.00,,,0.00,WUHU216HW,2013-09-13 08:16:00,
2013-09-13 03:21:00,50.6,46.0,29.58,ENE,68,0.0,0.0,84,0.00,,,0.00,WUHU216HW,2013-09-13 08:21:00,
2013-09-13 03:26:00,50.4,46.1,29.58,ENE,68,0.0,0.0,85,0.00,,,0.00,WUHU216HW,2013-09-13 08:26:00,
2013-09-13 03:31:00,50.4,46.1,29.58,ENE,68,0.2,0.2,85,0.00,,,0.00,WUHU216HW,2013-09-13 08:31:00,
2013-09-13 03:36:00,50.2,46.2,29.58,ENE,68,0.0,0.2,86,0.00,,,0.00,WUHU216HW,2013-09-13 08:36:00,
2013-09-13 03:41:00,50.4,46.7,29.58,East,87,0.4,0.4,87,0.00,,,0.00,WUHU216HW,2013-09-13 08:41:00,
2013-09-13 03:46:00,50.6,46.9,29.59,East,90,0.2,0.4,87,0.00,,,0.00,WUHU216HW,2013-09-13 08:46:00,
2013-09-13 03:51:00,50.8,47.1,29.59,East,87,0.4,1.3,87,0.00,,,0.00,WUHU216HW,2013-09-13 08:51:00,
2013-09-13 03:56:00,50.9,47.2,29.59,East,89,1.0,1.8,87,0.00,,,0.00,WUHU216HW,2013-09-13 08:56:00,
2013-09-13 04:01:00,51.3,47.6,29.59,ENE,73,0.4,1.8,87,0.00,,,0.00,WUHU216HW,2013-09-13 09:01:00,
2013-09-13 04:06:00,51.3,47.6,29.59,SSW,203,0.2,1.3,87,0.00,,,0.00,WUHU216HW,2013-09-13 09:06:00,
2013-09-13 04:11:00,50.9,46.9,29.59,NE,45,0.0,0.7,86,0.00,,,0.00,WUHU216HW,2013-09-13 09:11:00,
2013-09-13 04:16:00,50.6,46.6,29.60,ENE,68,0.0,0.2,86,0.00,,,0.00,WUHU216HW,2013-09-13 09:16:00,
2013-09-13 04:21:00,50.2,46.2,29.60,NE,52,0.2,0.4,86,0.00,,,0.00,WUHU216HW,2013-09-13 09:21:00,
2013-09-13 04:26:00,50.0,46.0,29.60,SW,225,0.0,0.4,86,0.00,,,0.00,WUHU216HW,2013-09-13 09:26:00,
2013-09-13 04:31:00,49.7,46.0,29.60,West,270,0.4,0.4,87,0.00,,,0.00,WUHU216HW,2013-09-13 09:31:00,
2013-09-13 04:36:00,49.7,46.0,29.60,NNW,338,0.0,0.4,87,0.00,,,0.00,WUHU216HW,2013-09-13 09:36:00,
2013-09-13 04:41:00,49.3,45.3,29.60,NE,45,0.0,0.4,86,0.00,,,0.00,WUHU216HW,2013-09-13 09:41:00,
2013-09-13 04:46:00,49.1,45.1,29.60,NE,45,0.0,0.0,86,0.00,,,0.00,WUHU216HW,2013-09-13 09:46:00,
2013-09-13 04:51:00,49.0,45.0,29.60,NE,45,0.0,0.0,86,0.00,,,0.00,WUHU216HW,2013-09-13 09:51:00,
2013-09-13 04:56:00,49.0,45.3,29.60,NE,45,0.0,0.0,87,0.00,,,0.00,WUHU216HW,2013-09-13 09:56:00,
2013-09-13 05:01:00,49.0,45.3,29.60,ENE,68,0.0,0.0,87,0.00,,,0.00,WUHU216HW,2013-09-13 10:01:00,
2013-09-13 05:06:00,49.0,45.3,29.60,NE,45,0.0,1.1,87,0.00,,,0.00,WUHU216HW,2013-09-13 10:06:00,
2013-09-13 05:11:00,49.0,45.6,29.60,ENE,68,0.0,1.1,88,0.00,,,0.00,WUHU216HW,2013-09-13 10:11:00,
2013-09-13 05:16:00,49.0,45.6,29.60,NNW,338,0.0,0.4,88,0.00,,,0.00,WUHU216HW,2013-09-13 10:16:00,
2013-09-13 05:21:00,48.6,45.2,29.60,SW,225,0.0,0.0,88,0.00,,,0.00,WUHU216HW,2013-09-13 10:21:00,
2013-09-13 05:26:00,48.2,44.5,29.60,SW,225,0.0,0.0,87,0.00,,,0.00,WUHU216HW,2013-09-13 10:26:00,
2013-09-13 05:31:00,47.7,44.0,29.61,SW,225,0.0,0.0,87,0.00,,,0.00,WUHU216HW,2013-09-13 10:31:00,
2013-09-13 05:36:00,47.3,43.6,29.61,SW,225,0.0,0.0,87,0.00,,,0.00,WUHU216HW,2013-09-13 10:36:00,
2013-09-13 05:41:00,47.2,43.5,29.61,SW,225,0.0,0.0,87,0.00,,,0.00,WUHU216HW,2013-09-13 10:41:00,
2013-09-13 05:46:00,47.0,43.3,29.61,SW,225,0.0,0.0,87,0.00,,,0.00,WUHU216HW,2013-09-13 10:46:00,
2013-09-13 05:51:00,46.8,43.1,29.61,SW,225,0.0,0.0,87,0.00,,,0.00,WUHU216HW,2013-09-13 10:51:00,
2013-09-13 05:56:00,46.4,42.7,29.61,SW,225,0.0,0.0,87,0.00,,,0.00,WUHU216HW,2013-09-13 10:56:00,
2013-09-13 06:01:00,46.4,43.0,29.61,SW,225,0.0,0.0,88,0.00,,,0.00,WUHU216HW,2013-09-13 11:01:00,
2013-09-13 06:06:00,46.3,42.9,29.61,SW,225,0.0,0.0,88,0.00,,,0.00,WUHU216HW,2013-09-13 11:06:00,
2013-09-13 06:12:00,45.9,42.5,29.62,SW,225,0.0,0.0,88,0.00,,,0.00,WUHU216HW,2013-09-13 11:12:00,
2013-09-13 06:17:00,45.5,42.1,29.62,SW,225,0.0,0.0,88,0.00,,,0.00,WUHU216HW,2013-09-13 11:17:00,
2013-09-13 06:22:00,45.4,42.1,29.62,SW,225,0.0,0.0,88,0.00,,,0.00,WUHU216HW,2013-09-13 11:22:00,
2013-09-13 06:27:00,45.7,42.3,29.62,SW,225,0.0,0.0,88,0.00,,,0.00,WUHU216HW,2013-09-13 11:27:00,
2013-09-13 06:32:00,45.7,42.3,29.62,SW,225,0.0,0.0,88,0.00,,,0.00,WUHU216HW,2013-09-13 11:32:00,
2013-09-13 06:37:00,45.2,41.9,29.62,SW,225,0.0,0.0,88,0.00,,,0.00,WUHU216HW,2013-09-13 11:37:00,
2013-09-13 06:42:00,45.0,41.9,29.63,SW,225,0.0,0.0,89,0.00,,,0.00,WUHU216HW,2013-09-13 11:42:00,
2013-09-13 06:47:00,44.8,41.7,29.63,SW,225,0.0,0.0,89,0.00,,,0.00,WUHU216HW,2013-09-13 11:47:00,
2013-09-13 06:52:00,44.6,41.6,29.63,SW,225,0.0,0.0,89,0.00,,,0.00,WUHU216HW,2013-09-13 11:52:00,
2013-09-13 06:57:00,44.6,41.6,29.63,SW,225,0.0,0.0,89,0.00,,,0.00,WUHU216HW,2013-09-13 11:57:00,
2013-09-13 07:02:00,44.6,41.6,29.63,SW,225,0.0,0.0,89,0.00,,,0.00,WUHU216HW,2013-09-13 12:02:00,
2013-09-13 07:07:00,44.6,41.8,29.63,SW,225,0.0,0.0,90,0.00,,,0.00,WUHU216HW,2013-09-13 12:07:00,
2013-09-13 07:12:00,45.0,42.2,29.63,SW,225,0.0,0.0,90,0.00,,,0.00,WUHU216HW,2013-09-13 12:12:00,
2013-09-13 07:17:00,45.5,42.7,29.63,East,90,0.0,0.0,90,0.00,,,0.00,WUHU216HW,2013-09-13 12:17:00,
2013-09-13 07:22:00,46.3,43.8,29.63,East,90,0.0,0.0,91,0.00,,,0.00,WUHU216HW,2013-09-13 12:22:00,
2013-09-13 07:27:00,47.3,44.8,29.64,East,90,0.0,0.0,91,0.00,,,0.00,WUHU216HW,2013-09-13 12:27:00,
2013-09-13 07:32:00,50.0,47.8,29.64,ENE,68,0.2,0.2,92,0.00,,,0.00,WUHU216HW,2013-09-13 12:32:00,
2013-09-13 07:37:00,51.8,49.5,29.64,NE,45,0.2,0.2,92,0.00,,,0.00,WUHU216HW,2013-09-13 12:37:00,
2013-09-13 07:42:00,53.6,51.0,29.64,ENE,68,0.0,0.4,91,0.00,,,0.00,WUHU216HW,2013-09-13 12:42:00,
2013-09-13 07:47:00,55.3,51.5,29.64,NNE,23,0.5,1.1,87,0.00,,,0.00,WUHU216HW,2013-09-13 12:47:00,
2013-09-13 07:52:00,56.3,51.3,29.65,NE,45,0.9,1.1,83,0.00,,,0.00,WUHU216HW,2013-09-13 12:52:00,
2013-09-13 07:57:00,57.2,51.5,29.65,NE,51,0.6,1.3,81,0.00,,,0.00,WUHU216HW,2013-09-13 12:57:00,
2013-09-13 08:02:00,58.1,51.0,29.65,ENE,69,1.0,1.8,77,0.00,,,0.00,WUHU216HW,2013-09-13 13:02:00,
2013-09-13 08:07:00,58.5,50.7,29.65,East,97,1.4,2.5,75,0.00,,,0.00,WUHU216HW,2013-09-13 13:07:00,
2013-09-13 08:12:00,58.7,50.6,29.65,East,79,1.2,2.5,74,0.00,,,0.00,WUHU216HW,2013-09-13 13:12:00,
2013-09-13 08:17:00,59.2,51.1,29.64,ESE,107,0.7,2.2,74,0.00,,,0.00,WUHU216HW,2013-09-13 13:17:00,
2013-09-13 08:22:00,59.4,50.5,29.64,NE,45,2.7,3.4,72,0.00,,,0.00,WUHU216HW,2013-09-13 13:22:00,
2013-09-13 08:27:00,59.6,50.7,29.65,ENE,63,1.8,3.4,72,0.00,,,0.00,WUHU216HW,2013-09-13 13:27:00,
2013-09-13 08:32:00,60.1,50.8,29.65,ENE,68,2.9,3.4,71,0.00,,,0.00,WUHU216HW,2013-09-13 13:32:00,
2013-09-13 08:37:00,60.5,50.8,29.65,ENE,68,2.5,4.7,70,0.00,,,0.00,WUHU216HW,2013-09-13 13:37:00,
2013-09-13 08:42:00,60.8,50.7,29.65,NE,45,4.9,4.9,69,0.00,,,0.00,WUHU216HW,2013-09-13 13:42:00,
2013-09-13 08:47:00,60.8,50.0,29.65,ENE,74,4.0,6.5,67,0.00,,,0.00,WUHU216HW,2013-09-13 13:47:00,
2013-09-13 08:52:00,60.8,50.0,29.65,East,83,4.2,6.5,67,0.00,,,0.00,WUHU216HW,2013-09-13 13:52:00,
2013-09-13 08:57:00,60.8,50.4,29.65,NE,38,2.8,6.3,68,0.00,,,0.00,WUHU216HW,2013-09-13 13:57:00,
2013-09-13 09:02:00,61.9,51.0,29.65,East,80,1.9,4.7,67,0.00,,,0.00,WUHU216HW,2013-09-13 14:02:00,
2013-09-13 09:07:00,62.1,50.8,29.65,ENE,68,3.8,3.8,66,0.00,,,0.00,WUHU216HW,2013-09-13 14:07:00,
2013-09-13 09:12:00,62.5,50.8,29.65,ESE,118,2.9,4.5,65,0.00,,,0.00,WUHU216HW,2013-09-13 14:12:00,
2013-09-13 09:17:00,62.6,50.9,29.65,ENE,60,2.5,4.7,65,0.00,,,0.00,WUHU216HW,2013-09-13 14:17:00,
2013-09-13 09:22:00,63.7,51.1,29.66,ENE,68,2.5,5.8,63,0.00,,,0.00,WUHU216HW,2013-09-13 14:22:00,
2013-09-13 09:27:00,64.1,50.6,29.66,NNE,23,4.0,5.8,61,0.00,,,0.00,WUHU216HW,2013-09-13 14:27:00,
2013-09-13 09:32:00,64.3,50.3,29.66,ENE,68,4.0,5.4,60,0.00,,,0.00,WUHU216HW,2013-09-13 14:32:00,
2013-09-13 09:37:00,64.4,50.4,29.66,ENE,62,3.0,5.4,60,0.00,,,0.00,WUHU216HW,2013-09-13 14:37:00,
2013-09-13 09:42:00,64.8,50.3,29.66,ENE,68,3.4,5.1,59,0.00,,,0.00,WUHU216HW,2013-09-13 14:42:00,
2013-09-13 09:47:00,64.4,49.5,29.66,ENE,68,5.4,5.4,58,0.00,,,0.00,WUHU216HW,2013-09-13 14:47:00,
2013-09-13 09:52:00,64.4,49.9,29.66,WSW,238,1.4,6.5,59,0.00,,,0.00,WUHU216HW,2013-09-13 14:52:00,
2013-09-13 09:57:00,64.8,49.9,29.66,ENE,66,3.1,6.5,58,0.00,,,0.00,WUHU216HW,2013-09-13 14:57:00,
2013-09-13 10:02:00,65.9,49.9,29.66,East,90,3.4,5.1,56,0.00,,,0.00,WUHU216HW,2013-09-13 15:02:00,
2013-09-13 10:07:00,66.4,50.9,29.66,NNE,15,1.2,3.6,57,0.00,,,0.00,WUHU216HW,2013-09-13 15:07:00,
2013-09-13 10:12:00,68.0,51.4,29.66,NE,45,1.8,3.6,55,0.00,,,0.00,WUHU216HW,2013-09-13 15:12:00,
2013-09-13 10:17:00,67.0,48.9,29.66,ESE,113,4.3,5.6,52,0.00,,,0.00,WUHU216HW,2013-09-13 15:17:00,
2013-09-13 10:22:00,66.4,48.9,29.66,ENE,68,3.4,5.6,53,0.00,,,0.00,WUHU216HW,2013-09-13 15:22:00,
2013-09-13 10:27:00,66.4,49.4,29.66,East,81,1.9,6.0,54,0.00,,,0.00,WUHU216HW,2013-09-13 15:27:00,
2013-09-13 10:32:00,68.0,49.8,29.66,NE,45,1.1,6.0,52,0.00,,,0.00,WUHU216HW,2013-09-13 15:32:00,
2013-09-13 10:37:00,68.4,49.1,29.66,NE,45,2.5,3.6,50,0.00,,,0.00,WUHU216HW,2013-09-13 15:37:00,
2013-09-13 10:42:00,69.1,50.3,29.66,NW,315,1.1,3.6,51,0.00,,,0.00,WUHU216HW,2013-09-13 15:42:00,
2013-09-13 10:47:00,70.2,49.1,29.66,East,90,3.4,4.9,47,0.00,,,0.00,WUHU216HW,2013-09-13 15:47:00,
2013-09-13 10:52:00,70.0,50.1,29.65,NE,54,1.9,4.9,49,0.00,,,0.00,WUHU216HW,2013-09-13 15:52:00,
2013-09-13 10:57:00,68.9,48.5,29.65,SE,135,2.7,4.0,48,0.00,,,0.00,WUHU216HW,2013-09-13 15:57:00,
2013-09-13 11:02:00,68.8,48.4,29.65,ENE,69,2.7,4.0,48,0.00,,,0.00,WUHU216HW,2013-09-13 16:02:00,
2013-09-13 11:07:00,69.3,49.4,29.65,ENE,68,1.3,3.4,49,0.00,,,0.00,WUHU216HW,2013-09-13 16:07:00,
2013-09-13 11:12:00,70.4,49.3,29.65,NW,315,3.8,4.3,47,0.00,,,0.00,WUHU216HW,2013-09-13 16:12:00,
2013-09-13 11:17:00,70.0,48.3,29.65,NE,43,2.6,5.4,46,0.00,,,0.00,WUHU216HW,2013-09-13 16:17:00,
2013-09-13 11:22:00,70.6,49.5,29.65,ESE,115,1.4,5.4,47,0.00,,,0.00,WUHU216HW,2013-09-13 16:22:00,
2013-09-13 11:27:00,70.6,48.9,29.65,East,90,2.5,3.8,46,0.00,,,0.00,WUHU216HW,2013-09-13 16:27:00,
2013-09-13 11:32:00,69.5,48.4,29.65,East,90,3.5,5.8,47,0.00,,,0.00,WUHU216HW,2013-09-13 16:32:00,
2013-09-13 11:37:00,69.3,48.3,29.65,ENE,63,2.2,5.8,47,0.00,,,0.00,WUHU216HW,2013-09-13 16:37:00,
2013-09-13 11:42:00,70.9,49.7,29.65,South,180,0.7,4.0,47,0.00,,,0.00,WUHU216HW,2013-09-13 16:42:00,
2013-09-13 11:47:00,71.8,48.7,29.64,ENE,64,1.2,4.3,44,0.00,,,0.00,WUHU216HW,2013-09-13 16:47:00,
2013-09-13 11:52:00,71.8,48.1,29.64,ESE,102,2.1,4.3,43,0.00,,,0.00,WUHU216HW,2013-09-13 16:52:00,
2013-09-13 11:57:00,73.1,47.3,29.64,East,90,3.4,4.7,40,0.00,,,0.00,WUHU216HW,2013-09-13 16:57:00,
2013-09-13 12:02:00,71.5,45.9,29.64,ENE,68,4.8,6.3,40,0.00,,,0.00,WUHU216HW,2013-09-13 17:02:00,
2013-09-13 12:07:00,70.2,46.0,29.64,ENE,71,3.2,6.3,42,0.00,,,0.00,WUHU216HW,2013-09-13 17:07:00,
2013-09-13 12:12:00,70.9,47.3,29.64,ENE,76,2.9,5.8,43,0.00,,,0.00,WUHU216HW,2013-09-13 17:12:00,
2013-09-13 12:17:00,72.4,49.3,29.63,NE,45,1.1,4.7,44,0.00,,,0.00,WUHU216HW,2013-09-13 17:17:00,
2013-09-13 12:22:00,73.4,47.6,29.63,NE,43,2.3,3.6,40,0.00,,,0.00,WUHU216HW,2013-09-13 17:22:00,
2013-09-13 12:27:00,73.4,46.9,29.63,East,83,3.7,5.4,39,0.00,,,0.00,WUHU216HW,2013-09-13 17:27:00,
2013-09-13 12:32:00,72.9,47.1,29.63,NE,56,2.0,5.4,40,0.00,,,0.00,WUHU216HW,2013-09-13 17:32:00,
2013-09-13 12:37:00,74.3,47.7,29.63,West,264,1.0,4.0,39,0.00,,,0.00,WUHU216HW,2013-09-13 17:37:00,
2013-09-13 12:42:00,75.6,48.1,29.63,NNE,23,1.8,3.4,38,0.00,,,0.00,WUHU216HW,2013-09-13 17:42:00,
2013-09-13 12:47:00,75.8,47.6,29.63,ENE,68,2.9,3.1,37,0.00,,,0.00,WUHU216HW,2013-09-13 17:47:00,
2013-09-13 12:52:00,74.3,45.5,29.62,ENE,58,2.7,6.0,36,0.00,,,0.00,WUHU216HW,2013-09-13 17:52:00,
2013-09-13 12:57:00,75.4,46.5,29.62,NE,45,2.2,6.0,36,0.00,,,0.00,WUHU216HW,2013-09-13 17:57:00,
2013-09-13 13:02:00,75.2,46.3,29.62,ESE,102,2.0,3.4,36,0.00,,,0.00,WUHU216HW,2013-09-13 18:02:00,
2013-09-13 13:07:00,75.2,47.8,29.62,NW,326,1.2,5.6,38,0.00,,,0.00,WUHU216HW,2013-09-13 18:07:00,
2013-09-13 13:12:00,76.1,47.1,29.61,East,96,1.5,5.6,36,0.00,,,0.00,WUHU216HW,2013-09-13 18:12:00,
2013-09-13 13:17:00,77.0,47.2,29.61,SE,135,1.6,2.5,35,0.00,,,0.00,WUHU216HW,2013-09-13 18:17:00,
2013-09-13 13:22:00,76.9,46.3,29.61,East,93,2.6,4.0,34,0.00,,,0.00,WUHU216HW,2013-09-13 18:22:00,
2013-09-13 13:27:00,77.9,47.2,29.61,WNW,293,2.5,4.0,34,0.00,,,0.00,WUHU216HW,2013-09-13 18:27:00,
2013-09-13 13:32:00,78.8,46.4,29.61,WSW,248,1.3,3.4,32,0.00,,,0.00,WUHU216HW,2013-09-13 18:32:00,
2013-09-13 13:37:00,78.8,46.4,29.61,NE,47,2.5,4.9,32,0.00,,,0.00,WUHU216HW,2013-09-13 18:37:00,
2013-09-13 13:42:00,76.5,43.5,29.60,East,93,4.2,5.6,31,0.00,,,0.00,WUHU216HW,2013-09-13 18:42:00,
2013-09-13 13:47:00,76.9,45.5,29.61,East,96,1.0,5.6,33,0.00,,,0.00,WUHU216HW,2013-09-13 18:47:00,
2013-09-13 13:52:00,78.3,45.1,29.60,NE,45,2.5,2.5,31,0.00,,,0.00,WUHU216HW,2013-09-13 18:52:00,
2013-09-13 13:57:00,78.8,45.5,29.60,ESE,113,1.6,2.5,31,0.00,,,0.00,WUHU216HW,2013-09-13 18:57:00,
2013-09-13 14:02:00,79.6,47.1,29.60,SW,225,1.8,2.5,32,0.00,,,0.00,WUHU216HW,2013-09-13 19:02:00,
2013-09-13 14:07:00,80.3,46.0,29.60,NE,45,2.9,2.9,30,0.00,,,0.00,WUHU216HW,2013-09-13 19:07:00,
2013-09-13 14:12:00,77.4,43.5,29.60,ENE,58,3.3,6.9,30,0.00,,,0.00,WUHU216HW,2013-09-13 19:12:00,
2013-09-13 14:17:00,77.0,44.0,29.60,ENE,73,3.5,6.9,31,0.00,,,0.00,WUHU216HW,2013-09-13 19:17:00,
2013-09-13 14:22:00,77.2,44.1,29.60,NNE,23,4.0,5.4,31,0.00,,,0.00,WUHU216HW,2013-09-13 19:22:00,
2013-09-13 14:27:00,76.1,43.2,29.59,ENE,73,3.5,5.4,31,0.00,,,0.00,WUHU216HW,2013-09-13 19:27:00,
2013-09-13 14:32:00,77.8,44.7,29.59,South,174,1.3,5.4,31,0.00,,,0.00,WUHU216HW,2013-09-13 19:32:00,
2013-09-13 14:37:00,78.5,45.3,29.59,ENE,65,1.8,4.0,31,0.00,,,0.00,WUHU216HW,2013-09-13 19:37:00,
2013-09-13 14:42:00,79.6,46.2,29.59,SE,135,1.3,4.0,31,0.00,,,0.00,WUHU216HW,2013-09-13 19:42:00,
2013-09-13 14:47:00,79.9,45.6,29.59,NE,45,1.3,4.7,30,0.00,,,0.00,WUHU216HW,2013-09-13 19:47:00,
2013-09-13 14:52:00,80.1,44.9,29.58,South,180,2.2,6.0,29,0.00,,,0.00,WUHU216HW,2013-09-13 19:52:00,
2013-09-13 14:57:00,80.5,45.3,29.58,SE,135,2.5,6.0,29,0.00,,,0.00,WUHU216HW,2013-09-13 19:57:00,
2013-09-13 15:02:00,80.3,45.1,29.58,ENE,68,3.1,3.1,29,0.00,,,0.00,WUHU216HW,2013-09-13 20:02:00,
2013-09-13 15:07:00,81.0,43.8,29.58,East,90,1.8,3.1,27,0.00,,,0.00,WUHU216HW,2013-09-13 20:07:00,
2013-09-13 15:12:00,81.7,43.5,29.58,ESE,113,2.5,4.3,26,0.00,,,0.00,WUHU216HW,2013-09-13 20:12:00,
2013-09-13 15:17:00,81.9,43.6,29.58,NW,310,1.2,4.3,26,0.00,,,0.00,WUHU216HW,2013-09-13 20:17:00,
2013-09-13 15:22:00,82.6,45.2,29.58,SSE,158,1.6,3.4,27,0.00,,,0.00,WUHU216HW,2013-09-13 20:22:00,
2013-09-13 15:27:00,82.1,41.8,29.58,ENE,75,2.6,3.6,24,0.00,,,0.00,WUHU216HW,2013-09-13 20:27:00,
2013-09-13 15:32:00,81.5,44.3,29.58,SE,135,1.8,3.6,27,0.00,,,0.00,WUHU216HW,2013-09-13 20:32:00,
2013-09-13 15:37:00,81.0,42.9,29.58,East,93,2.4,4.5,26,0.00,,,0.00,WUHU216HW,2013-09-13 20:37:00,
2013-09-13 15:42:00,81.5,42.3,29.58,ESE,113,1.8,4.5,25,0.00,,,0.00,WUHU216HW,2013-09-13 20:42:00,
2013-09-13 15:47:00,80.1,41.1,29.57,ESE,106,2.6,4.0,25,0.00,,,0.00,WUHU216HW,2013-09-13 20:47:00,
2013-09-13 15:52:00,80.6,45.4,29.57,West,276,0.6,4.0,29,0.00,,,0.00,WUHU216HW,2013-09-13 20:52:00,
2013-09-13 15:57:00,82.8,45.4,29.57,South,185,1.5,3.4,27,0.00,,,0.00,WUHU216HW,2013-09-13 20:57:00,
2013-09-13 16:02:00,82.8,43.4,29.57,ESE,113,2.0,2.5,25,0.00,,,0.00,WUHU216HW,2013-09-13 21:02:00,
2013-09-13 16:07:00,82.4,45.0,29.57,NNE,20,1.1,2.7,27,0.00,,,0.00,WUHU216HW,2013-09-13 21:07:00,
2013-09-13 16:12:00,82.4,45.0,29.57,SW,225,1.1,2.7,27,0.00,,,0.00,WUHU216HW,2013-09-13 21:12:00,
2013-09-13 16:17:00,83.7,46.2,29.56,ENE,76,1.2,2.0,27,0.00,,,0.00,WUHU216HW,2013-09-13 21:17:00,
2013-09-13 16:22:00,82.8,44.4,29.57,ESE,113,1.8,2.5,26,0.00,,,0.00,WUHU216HW,2013-09-13 21:22:00,
2013-09-13 16:27:00,83.0,44.6,29.56,West,270,0.9,2.5,26,0.00,,,0.00,WUHU216HW,2013-09-13 21:27:00,
2013-09-13 16:32:00,83.0,45.6,29.56,ENE,62,1.3,2.5,27,0.00,,,0.00,WUHU216HW,2013-09-13 21:32:00,
2013-09-13 16:37:00,83.0,45.6,29.56,ESE,113,0.9,2.5,27,0.00,,,0.00,WUHU216HW,2013-09-13 21:37:00,
2013-09-13 16:42:00,83.2,45.7,29.56,ENE,61,0.9,1.1,27,0.00,,,0.00,WUHU216HW,2013-09-13 21:42:00,
2013-09-13 16:47:00,82.1,43.8,29.57,ESE,113,2.7,3.1,26,0.00,,,0.00,WUHU216HW,2013-09-13 21:47:00,
2013-09-13 16:52:00,81.7,44.4,29.56,ESE,122,0.9,3.4,27,0.00,,,0.00,WUHU216HW,2013-09-13 21:52:00,
2013-09-13 16:57:00,80.6,43.5,29.56,East,89,2.4,4.0,27,0.00,,,0.00,WUHU216HW,2013-09-13 21:57:00,
2013-09-13 17:02:00,80.3,43.2,29.56,ENE,68,2.2,4.0,27,0.00,,,0.00,WUHU216HW,2013-09-13 22:02:00,
2013-09-13 17:07:00,78.5,41.7,29.56,East,90,3.1,4.0,27,0.00,,,0.00,WUHU216HW,2013-09-13 22:07:00,
2013-09-13 17:12:00,77.8,42.9,29.56,ENE,68,2.7,4.0,29,0.00,,,0.00,WUHU216HW,2013-09-13 22:12:00,
2013-09-13 17:17:00,76.9,43.0,29.56,SW,225,0.4,2.7,30,0.00,,,0.00,WUHU216HW,2013-09-13 22:17:00,
2013-09-13 17:22:00,76.9,43.9,29.56,NNW,338,0.4,2.0,31,0.00,,,0.00,WUHU216HW,2013-09-13 22:22:00,
2013-09-13 17:27:00,76.3,43.4,29.56,ESE,113,1.8,1.8,31,0.00,,,0.00,WUHU216HW,2013-09-13 22:27:00,
2013-09-13 17:32:00,74.9,42.1,29.56,ENE,70,0.7,2.5,31,0.00,,,0.00,WUHU216HW,2013-09-13 22:32:00,
2013-09-13 17:37:00,73.8,41.2,29.56,East,89,1.3,2.5,31,0.00,,,0.00,WUHU216HW,2013-09-13 22:37:00,
2013-09-13 17:42:00,73.1,43.0,29.56,North,350,0.4,2.2,34,0.00,,,0.00,WUHU216HW,2013-09-13 22:42:00,
2013-09-13 17:47:00,72.4,42.3,29.56,North,0,0.4,2.2,34,0.00,,,0.00,WUHU216HW,2013-09-13 22:47:00,
2013-09-13 17:52:00,71.8,44.8,29.56,SW,225,0.4,0.4,38,0.00,,,0.00,WUHU216HW,2013-09-13 22:52:00,
2013-09-13 17:57:00,71.6,43.1,29.56,NNW,338,0.4,0.4,36,0.00,,,0.00,WUHU216HW,2013-09-13 22:57:00,
2013-09-13 18:02:00,70.9,42.5,29.56,East,90,0.2,0.7,36,0.00,,,0.00,WUHU216HW,2013-09-13 23:02:00,
2013-09-13 18:07:00,70.2,41.9,29.56,ESE,113,1.6,1.8,36,0.00,,,0.00,WUHU216HW,2013-09-13 23:07:00,
2013-09-13 18:12:00,70.0,43.1,29.56,NE,45,0.8,1.8,38,0.00,,,0.00,WUHU216HW,2013-09-13 23:12:00,
2013-09-13 18:17:00,69.5,42.7,29.56,West,270,0.0,1.6,38,0.00,,,0.00,WUHU216HW,2013-09-13 23:17:00,
2013-09-13 18:22:00,68.8,42.1,29.56,North,1,0.4,0.9,38,0.00,,,0.00,WUHU216HW,2013-09-13 23:22:00,
2013-09-13 18:27:00,68.0,42.7,29.56,ENE,73,0.9,2.0,40,0.00,,,0.00,WUHU216HW,2013-09-13 23:27:00,
2013-09-13 18:32:00,67.3,42.7,29.56,WNW,293,0.0,2.0,41,0.00,,,0.00,WUHU216HW,2013-09-13 23:32:00,
2013-09-13 18:39:00,66.4,42.6,29.55,WNW,293,0.0,0.4,42,0.00,,,0.00,WUHU216HW,2013-09-13 23:39:00,
2013-09-13 18:44:00,65.0,43.7,29.55,West,270,0.0,0.0,46,0.00,,,0.00,WUHU216HW,2013-09-13 23:44:00,
2013-09-13 18:49:00,63.9,43.3,29.55,West,270,0.0,0.0,47,0.00,,,0.00,WUHU216HW,2013-09-13 23:49:00,
2013-09-13 18:54:00,63.0,43.0,29.55,West,270,0.0,0.0,48,0.00,,,0.00,WUHU216HW,2013-09-13 23:54:00,
2013-09-13 18:59:00,61.9,42.0,29.55,West,270,0.0,0.0,48,0.00,,,0.00,WUHU216HW,2013-09-13 23:59:00,
2013-09-13 19:04:00,61.0,41.8,29.55,West,270,0.0,0.0,49,0.00,,,0.00,WUHU216HW,2013-09-14 00:04:00,
2013-09-13 19:09:00,60.1,41.5,29.55,West,270,0.0,0.0,50,0.00,,,0.00,WUHU216HW,2013-09-14 00:09:00,
2013-09-13 19:14:00,59.0,41.0,29.55,West,270,0.0,0.0,51,0.00,,,0.00,WUHU216HW,2013-09-14 00:14:00,
2013-09-13 19:19:00,58.1,41.2,29.55,West,270,0.0,0.0,53,0.00,,,0.00,WUHU216HW,2013-09-14 00:19:00,
2013-09-13 19:24:00,57.2,41.3,29.55,West,270,0.0,0.0,55,0.00,,,0.00,WUHU216HW,2013-09-14 00:24:00,
2013-09-13 19:29:00,56.7,42.2,29.55,West,270,0.0,0.0,58,0.00,,,0.00,WUHU216HW,2013-09-14 00:29:00,
2013-09-13 19:34:00,56.0,41.1,29.55,West,270,0.0,0.0,57,0.00,,,0.00,WUHU216HW,2013-09-14 00:34:00,
2013-09-13 19:39:00,55.3,40.9,29.55,West,270,0.0,0.0,58,0.00,,,0.00,WUHU216HW,2013-09-14 00:39:00,
2013-09-13 19:44:00,54.5,40.6,29.55,West,270,0.0,0.0,59,0.00,,,0.00,WUHU216HW,2013-09-14 00:44:00,
2013-09-13 19:49:00,53.8,40.8,29.55,West,270,0.0,0.0,61,0.00,,,0.00,WUHU216HW,2013-09-14 00:49:00,
2013-09-13 19:54:00,53.3,40.8,29.55,West,270,0.0,0.0,62,0.00,,,0.00,WUHU216HW,2013-09-14 00:54:00,
2013-09-13 19:59:00,52.7,40.6,29.55,West,270,0.0,0.0,63,0.00,,,0.00,WUHU216HW,2013-09-14 00:59:00,
2013-09-13 20:04:00,52.2,40.5,29.55,West,270,0.0,0.0,64,0.00,,,0.00,WUHU216HW,2013-09-14 01:04:00,
2013-09-13 20:09:00,51.5,40.3,29.56,West,270,0.0,0.0,65,0.00,,,0.00,WUHU216HW,2013-09-14 01:09:00,
2013-09-13 20:14:00,51.1,40.3,29.56,West,270,0.0,0.0,66,0.00,,,0.00,WUHU216HW,2013-09-14 01:14:00,
2013-09-13 20:19:00,50.9,40.9,29.56,West,270,0.0,0.0,68,0.00,,,0.00,WUHU216HW,2013-09-14 01:19:00,
2013-09-13 20:24:00,50.8,41.1,29.56,West,270,0.0,0.0,69,0.00,,,0.00,WUHU216HW,2013-09-14 01:24:00,
2013-09-13 20:29:00,50.2,40.2,29.56,West,270,0.0,0.0,68,0.00,,,0.00,WUHU216HW,2013-09-14 01:29:00,
2013-09-13 20:34:00,50.0,40.4,29.57,West,270,0.0,0.0,69,0.00,,,0.00,WUHU216HW,2013-09-14 01:34:00,
2013-09-13 20:39:00,49.7,40.5,29.56,West,270,0.0,0.0,70,0.00,,,0.00,WUHU216HW,2013-09-14 01:39:00,
2013-09-13 20:44:00,49.3,40.4,29.57,West,270,0.0,0.0,71,0.00,,,0.00,WUHU216HW,2013-09-14 01:44:00,
2013-09-13 20:49:00,49.1,40.2,29.57,West,270,0.0,0.0,71,0.00,,,0.00,WUHU216HW,2013-09-14 01:49:00,
2013-09-13 20:54:00,48.8,40.6,29.57,West,270,0.0,0.0,73,0.00,,,0.00,WUHU216HW,2013-09-14 01:54:00,
2013-09-13 20:59:00,48.6,40.5,29.57,West,270,0.0,0.0,73,0.00,,,0.00,WUHU216HW,2013-09-14 01:59:00,
2013-09-13 21:04:00,48.2,40.4,29.57,West,270,0.0,0.0,74,0.00,,,0.00,WUHU216HW,2013-09-14 02:04:00,
2013-09-13 21:09:00,47.9,40.1,29.57,West,270,0.0,0.0,74,0.00,,,0.00,WUHU216HW,2013-09-14 02:09:00,
2013-09-13 21:14:00,47.7,39.9,29.57,West,270,0.0,0.0,74,0.00,,,0.00,WUHU216HW,2013-09-14 02:14:00,
2013-09-13 21:19:00,47.5,40.1,29.57,West,270,0.0,0.0,75,0.00,,,0.00,WUHU216HW,2013-09-14 02:19:00,
2013-09-13 21:24:00,47.3,40.2,29.57,West,270,0.0,0.0,76,0.00,,,0.00,WUHU216HW,2013-09-14 02:24:00,
2013-09-13 21:29:00,47.2,40.1,29.57,West,270,0.0,0.0,76,0.00,,,0.00,WUHU216HW,2013-09-14 02:29:00,
2013-09-13 21:34:00,47.0,40.2,29.57,West,270,0.0,0.0,77,0.00,,,0.00,WUHU216HW,2013-09-14 02:34:00,
2013-09-13 21:39:00,46.8,40.1,29.57,West,270,0.0,0.0,77,0.00,,,0.00,WUHU216HW,2013-09-14 02:39:00,
2013-09-13 21:44:00,46.8,40.4,29.57,West,270,0.0,0.0,78,0.00,,,0.00,WUHU216HW,2013-09-14 02:44:00,
2013-09-13 21:49:00,46.6,40.2,29.57,West,270,0.0,0.0,78,0.00,,,0.00,WUHU216HW,2013-09-14 02:49:00,
2013-09-13 21:54:00,46.3,39.9,29.57,West,270,0.0,0.0,78,0.00,,,0.00,WUHU216HW,2013-09-14 02:54:00,
2013-09-13 21:59:00,45.9,39.8,29.57,West,270,0.0,0.0,79,0.00,,,0.00,WUHU216HW,2013-09-14 02:59:00,
2013-09-13 22:04:00,45.7,39.6,29.57,West,270,0.0,0.0,79,0.00,,,0.00,WUHU216HW,2013-09-14 03:04:00,
2013-09-13 22:09:00,45.4,39.0,29.57,West,270,0.0,0.0,78,0.00,,,0.00,WUHU216HW,2013-09-14 03:09:00,
2013-09-13 22:14:00,45.0,38.9,29.57,West,270,0.0,0.0,79,0.00,,,0.00,WUHU216HW,2013-09-14 03:14:00,
2013-09-13 22:19:00,45.0,38.9,29.57,West,270,0.0,0.0,79,0.00,,,0.00,WUHU216HW,2013-09-14 03:19:00,
2013-09-13 22:24:00,45.0,38.9,29.57,West,270,0.0,0.0,79,0.00,,,0.00,WUHU216HW,2013-09-14 03:24:00,
2013-09-13 22:29:00,44.6,38.9,29.57,West,270,0.0,0.0,80,0.00,,,0.00,WUHU216HW,2013-09-14 03:29:00,
2013-09-13 22:34:00,44.6,38.9,29.57,West,270,0.0,0.0,80,0.00,,,0.00,WUHU216HW,2013-09-14 03:34:00,
2013-09-13 22:39:00,44.5,38.8,29.57,West,270,0.0,0.0,80,0.00,,,0.00,WUHU216HW,2013-09-14 03:39:00,
2013-09-13 22:44:00,44.3,38.6,29.57,West,270,0.0,0.0,80,0.00,,,0.00,WUHU216HW,2013-09-14 03:44:00,
2013-09-13 22:49:00,44.5,39.7,29.57,West,270,0.0,0.0,83,0.00,,,0.00,WUHU216HW,2013-09-14 03:49:00,
2013-09-13 22:54:00,44.6,39.5,29.58,West,270,0.0,0.0,82,0.00,,,0.00,WUHU216HW,2013-09-14 03:54:00,
2013-09-13 22:59:00,44.5,39.4,29.57,West,270,0.0,0.0,82,0.00,,,0.00,WUHU216HW,2013-09-14 03:59:00,
2013-09-13 23:01:00,44.3,39.2,29.57,West,270,0.0,0.0,82,0.00,,,0.00,WUHU216HW,2013-09-14 04:01:00,
2013-09-13 23:06:00,44.3,39.2,29.57,West,270,0.0,0.0,82,0.00,,,0.00,WUHU216HW,2013-09-14 04:06:00,
2013-09-13 23:11:00,44.3,39.2,29.57,West,270,0.0,0.0,82,0.00,,,0.00,WUHU216HW,2013-09-14 04:11:00,
2013-09-13 23:16:00,44.3,39.2,29.57,West,270,0.0,0.0,82,0.00,,,0.00,WUHU216HW,2013-09-14 04:16:00,
2013-09-13 23:21:00,44.3,39.2,29.57,West,270,0.0,0.0,82,0.00,,,0.00,WUHU216HW,2013-09-14 04:21:00,
2013-09-13 23:26:00,44.1,39.3,29.57,West,270,0.0,0.0,83,0.00,,,0.00,WUHU216HW,2013-09-14 04:26:00,
2013-09-13 23:31:00,43.9,38.8,29.57,West,270,0.0,0.0,82,0.00,,,0.00,WUHU216HW,2013-09-14 04:31:00,
2013-09-13 23:36:00,43.6,38.5,29.57,West,270,0.0,0.0,82,0.00,,,0.00,WUHU216HW,2013-09-14 04:36:00,
2013-09-13 23:41:00,43.2,38.1,29.57,West,270,0.0,0.0,82,0.00,,,0.00,WUHU216HW,2013-09-14 04:41:00,
2013-09-13 23:46:00,42.8,38.0,29.57,West,270,0.0,0.0,83,0.00,,,0.00,WUHU216HW,2013-09-14 04:46:00,
2013-09-13 23:51:00,42.5,37.7,29.57,West,270,0.0,0.0,83,0.00,,,0.00,WUHU216HW,2013-09-14 04:51:00,
2013-09-13 23:56:00,42.8,38.3,29.57,West,270,0.0,0.0,84,0.00,,,0.00,WUHU216HW,2013-09-14 04:56:00,